Terminal Aerodrome Forecast
Issued by NWS

Home | Current Version | Previous Version | Text Only | Print | Product List | Glossary On
Versions: 1 2 3 4 5 6 7 8 9 10 11 12 13 14 15 16 17
000
FTUS42 KFFC 291131
TAFFTY
TAF
KFTY 291131Z 2912/3012 00000KT P6SM BKN200
     FM291500 17005KT P6SM BKN200
     FM291800 19008KT P6SM BKN080
     FM292300 20004KT P6SM SCT025 BKN080
     FM300100 23003KT P6SM BKN025 OVC080
     FM300300 26004KT P6SM BKN012 PROB30 3003/3008 -RA BKN012=

USA.gov is the U.S. government's official web portal to all federal, state and local government web resources and services.